Time;durP1;ratioP1;P1;durP2;ratioP2;P2;SDS_P1;SDS_P2;PMS_P1;PMS_P2;Temp;Humidity;BMP_temperature;BMP_pressure;BME280_temperature;BME280_humidity;BME280_pressure;Samples;Min_cycle;Max_cycle;Signal;HPM_P1;HPM_P2
2021/06/25 00:01:28;;;;;;;13.40;7.00;;;;;;;;;;6253196;23;20215;-83
2021/06/25 00:03:55;;;;;;;10.98;6.80;;;;;;;;;;6254200;23;20070;-82
2021/06/25 00:06:28;;;;;;;13.02;7.20;;;;;;;;;;6235824;23;20012;-82
2021/06/25 00:08:55;;;;;;;9.98;7.47;;;;;;;;;;6246433;23;20046;-83
2021/06/25 00:11:21;;;;;;;12.80;7.30;;;;;;;;;;6264719;22;20051;-83
2021/06/25 00:13:48;;;;;;;13.43;7.68;;;;;;;;;;6255067;23;20327;-83
2021/06/25 00:16:44;;;;;;;10.18;7.18;;;;;;;;;;6256596;23;20032;-83
2021/06/25 00:19:11;;;;;;;14.43;7.80;;;;;;;;;;6234904;23;20089;-83
2021/06/25 00:21:37;;;;;;;10.20;6.90;;;;;;;;;;6229131;23;20024;-83
2021/06/25 00:24:10;;;;;;;16.95;7.60;;;;;;;;;;6229707;23;20032;-84
2021/06/25 00:26:40;;;;;;;13.25;8.68;;;;;;;;;;6255531;23;20024;-83
2021/06/25 00:29:07;;;;;;;11.88;8.15;;;;;;;;;;6228349;23;20021;-83
2021/06/25 00:31:50;;;;;;;14.48;7.97;;;;;;;;;;6254799;23;20020;-83
2021/06/25 00:34:17;;;;;;;15.10;8.25;;;;;;;;;;6228021;23;20048;-83
2021/06/25 00:36:44;;;;;;;14.82;9.18;;;;;;;;;;6228299;23;20079;-83
2021/06/25 00:39:10;;;;;;;13.88;10.68;;;;;;;;;;6228291;23;20059;-83
2021/06/25 00:41:43;;;;;;;18.48;10.65;;;;;;;;;;6229100;23;20035;-83
2021/06/25 00:44:13;;;;;;;13.88;10.60;;;;;;;;;;6229100;23;20418;-83
2021/06/25 00:46:40;;;;;;;15.43;10.00;;;;;;;;;;6253231;23;20024;-83
2021/06/25 00:49:10;;;;;;;17.30;9.75;;;;;;;;;;6252962;23;20025;-83
2021/06/25 00:51:44;;;;;;;18.42;8.75;;;;;;;;;;6227788;23;20249;-83
2021/06/25 00:54:11;;;;;;;15.65;9.45;;;;;;;;;;6228377;23;20071;-83
2021/06/25 00:56:50;;;;;;;14.65;9.27;;;;;;;;;;6255552;23;20035;-84
2021/06/25 00:59:17;;;;;;;16.35;9.73;;;;;;;;;;6255280;23;20031;-84
2021/06/25 01:01:44;;;;;;;19.90;10.77;;;;;;;;;;6228804;23;20072;-83
2021/06/25 01:04:13;;;;;;;15.65;10.20;;;;;;;;;;6254718;23;20055;-84
2021/06/25 01:06:40;;;;;;;18.30;11.35;;;;;;;;;;6227855;23;20028;-84
2021/06/25 01:09:08;;;;;;;17.58;11.05;;;;;;;;;;6254257;23;20024;-85
2021/06/25 01:11:42;;;;;;;16.98;9.88;;;;;;;;;;6254522;23;20046;-84
2021/06/25 01:14:21;;;;;;;15.82;11.05;;;;;;;;;;6229442;23;20020;-84
2021/06/25 01:16:47;;;;;;;22.00;12.68;;;;;;;;;;6227956;23;20027;-83
2021/06/25 01:19:14;;;;;;;19.30;11.65;;;;;;;;;;6254431;23;20317;-84
2021/06/25 01:21:50;;;;;;;17.73;10.35;;;;;;;;;;6228275;23;20031;-84
2021/06/25 01:24:17;;;;;;;;;;;;;;;;;;6254855;23;20020;-83
2021/06/25 01:26:47;;;;;;;17.60;10.57;;;;;;;;;;6254387;23;19950;-84
2021/06/25 01:29:20;;;;;;;17.38;10.38;;;;;;;;;;6228374;23;20085;-83
2021/06/25 01:31:47;;;;;;;17.63;9.98;;;;;;;;;;6228009;23;20025;-84
2021/06/25 01:34:13;;;;;;;17.90;9.45;;;;;;;;;;6253683;23;20035;-84
2021/06/25 01:36:47;;;;;;;12.52;8.60;;;;;;;;;;6226748;23;20078;-84
2021/06/25 01:39:15;;;;;;;14.60;8.02;;;;;;;;;;6252474;23;20028;-84
2021/06/25 01:41:43;;;;;;;13.00;7.55;;;;;;;;;;6226544;23;20070;-83
2021/06/25 01:44:13;;;;;;;11.07;8.45;;;;;;;;;;6251721;23;20348;-84
2021/06/25 01:46:50;;;;;;;14.02;8.25;;;;;;;;;;6252522;23;20078;-84
2021/06/25 01:49:17;;;;;;;11.85;8.52;;;;;;;;;;6226109;23;20391;-83
2021/06/25 01:51:47;;;;;;;11.70;8.18;;;;;;;;;;6250993;23;20095;-83
2021/06/25 01:54:14;;;;;;;12.07;8.90;;;;;;;;;;6225274;23;20051;-84
2021/06/25 01:56:41;;;;;;;15.65;8.13;;;;;;;;;;6253974;23;20349;-84
2021/06/25 01:59:09;;;;;;;15.55;9.25;;;;;;;;;;6221523;23;20399;-82
2021/06/25 02:01:36;;;;;;;17.45;9.90;;;;;;;;;;6222457;23;20025;-82
2021/06/25 02:04:03;;;;;;;15.18;9.80;;;;;;;;;;6220778;23;20349;-83
2021/06/25 02:06:30;;;;;;;17.20;10.15;;;;;;;;;;6221683;23;20050;-84
2021/06/25 02:08:56;;;;;;;13.63;10.02;;;;;;;;;;6220358;23;20033;-83
2021/06/25 02:11:26;;;;;;;19.92;10.55;;;;;;;;;;6222605;23;20059;-83
2021/06/25 02:13:52;;;;;;;15.00;9.90;;;;;;;;;;6247402;23;20024;-83
2021/06/25 02:16:19;;;;;;;12.95;9.45;;;;;;;;;;6222131;23;20025;-83
2021/06/25 02:18:46;;;;;;;11.80;8.13;;;;;;;;;;6221143;23;20044;-83
2021/06/25 02:21:12;;;;;;;14.77;8.98;;;;;;;;;;6222962;23;20149;-83
2021/06/25 02:23:39;;;;;;;15.27;9.52;;;;;;;;;;6221819;23;20024;-83
2021/06/25 02:26:06;;;;;;;17.38;11.27;;;;;;;;;;6223083;23;20029;-83
2021/06/25 02:28:36;;;;;;;16.25;10.82;;;;;;;;;;6246154;23;20025;-83
2021/06/25 02:31:02;;;;;;;20.63;10.65;;;;;;;;;;6222069;23;20048;-83
2021/06/25 02:33:29;;;;;;;20.08;11.65;;;;;;;;;;6246203;23;20032;-83
2021/06/25 02:36:02;;;;;;;17.90;10.88;;;;;;;;;;6247079;23;20033;-82
2021/06/25 02:38:29;;;;;;;18.60;11.02;;;;;;;;;;6224782;23;20028;-83
2021/06/25 02:40:55;;;;;;;16.00;10.15;;;;;;;;;;6227533;23;20031;-83
2021/06/25 02:43:28;;;;;;;17.73;10.25;;;;;;;;;;6249985;23;20025;-83
2021/06/25 02:45:55;;;;;;;17.23;11.45;;;;;;;;;;6221351;23;20382;-83
2021/06/25 02:48:22;;;;;;;20.45;12.13;;;;;;;;;;6223542;23;20021;-83
2021/06/25 02:50:49;;;;;;;15.50;11.20;;;;;;;;;;6222461;23;20035;-83
2021/06/25 02:53:19;;;;;;;17.67;11.05;;;;;;;;;;6223340;23;20094;-83
2021/06/25 02:55:52;;;;;;;16.42;10.65;;;;;;;;;;6245738;23;20024;-83
2021/06/25 02:58:20;;;;;;;16.25;10.73;;;;;;;;;;6220010;23;20115;-83
2021/06/25 03:00:47;;;;;;;16.50;10.43;;;;;;;;;;6224792;23;20296;-83
2021/06/25 03:03:15;;;;;;;13.65;9.95;;;;;;;;;;6227006;23;20034;-83
2021/06/25 03:05:41;;;;;;;16.92;10.40;;;;;;;;;;6253185;23;20024;-83
2021/06/25 03:08:08;;;;;;;16.45;11.30;;;;;;;;;;6226096;23;20047;-83
2021/06/25 03:10:41;;;;;;;18.83;11.60;;;;;;;;;;6225873;23;20027;-84
2021/06/25 03:13:09;;;;;;;17.70;10.38;;;;;;;;;;6251652;23;20031;-84
2021/06/25 03:15:39;;;;;;;17.73;10.77;;;;;;;;;;6251640;23;20032;-83
2021/06/25 03:18:09;;;;;;;18.77;10.85;;;;;;;;;;6251750;23;20028;-83
2021/06/25 03:20:35;;;;;;;24.13;12.98;;;;;;;;;;6226141;23;20024;-83
2021/06/25 03:23:03;;;;;;;17.75;11.43;;;;;;;;;;6250262;23;20024;-83
2021/06/25 03:25:31;;;;;;;18.23;11.68;;;;;;;;;;6228276;23;20099;-83
2021/06/25 03:27:58;;;;;;;17.15;10.85;;;;;;;;;;6230758;23;20088;-84
2021/06/25 03:30:27;;;;;;;22.33;11.77;;;;;;;;;;6270935;22;20076;-83
2021/06/25 03:32:54;;;;;;;18.75;12.25;;;;;;;;;;6272483;22;20035;-82
2021/06/25 03:35:21;;;;;;;19.38;12.52;;;;;;;;;;6257976;22;20347;-82
2021/06/25 03:37:48;;;;;;;25.00;12.05;;;;;;;;;;6254652;23;20024;-83
2021/06/25 03:40:15;;;;;;;16.42;9.85;;;;;;;;;;6254739;23;20024;-82
2021/06/25 03:42:43;;;;;;;17.58;11.60;;;;;;;;;;6226574;23;20180;-82
2021/06/25 03:45:11;;;;;;;20.90;14.13;;;;;;;;;;6226260;23;20020;-82
2021/06/25 03:47:38;;;;;;;27.83;16.92;;;;;;;;;;6226379;23;20365;-83
2021/06/25 03:50:06;;;;;;;25.83;17.67;;;;;;;;;;6226364;23;20080;-83
2021/06/25 03:52:32;;;;;;;26.17;15.98;;;;;;;;;;6226230;23;20030;-82
2021/06/25 03:54:59;;;;;;;21.52;13.98;;;;;;;;;;6252686;23;20028;-82
2021/06/25 03:57:26;;;;;;;24.42;14.35;;;;;;;;;;6251689;23;20031;-82
2021/06/25 03:59:52;;;;;;;21.25;13.93;;;;;;;;;;6252537;23;20080;-83
2021/06/25 04:02:19;;;;;;;27.15;16.23;;;;;;;;;;6225384;23;20349;-83
2021/06/25 04:04:46;;;;;;;21.52;14.88;;;;;;;;;;6224887;23;20034;-83
2021/06/25 04:07:12;;;;;;;22.08;15.07;;;;;;;;;;6226253;23;20084;-83
2021/06/25 04:09:39;;;;;;;24.60;15.20;;;;;;;;;;6225773;23;20133;-82
2021/06/25 04:12:06;;;;;;;24.08;15.07;;;;;;;;;;6227259;23;20054;-83
2021/06/25 04:14:32;;;;;;;21.67;15.00;;;;;;;;;;6228036;23;20020;-83
2021/06/25 04:16:59;;;;;;;24.90;15.18;;;;;;;;;;6252707;23;20028;-82
2021/06/25 04:19:38;;;;;;;19.30;15.27;;;;;;;;;;6226330;23;20341;-82
2021/06/25 04:22:12;;;;;;;23.42;15.70;;;;;;;;;;6253484;23;20016;-83
2021/06/25 04:24:53;;;;;;;23.63;15.55;;;;;;;;;;6230899;23;20028;-84
2021/06/25 04:27:20;;;;;;;21.98;15.38;;;;;;;;;;6228156;23;20034;-83
2021/06/25 04:29:47;;;;;;;27.05;16.58;;;;;;;;;;6252430;23;20017;-83
2021/06/25 04:32:16;;;;;;;28.83;15.68;;;;;;;;;;6228032;23;20034;-83
2021/06/25 04:34:42;;;;;;;24.55;15.85;;;;;;;;;;6227380;23;20012;-83
2021/06/25 04:37:18;;;;;;;19.20;13.85;;;;;;;;;;6227207;23;20028;-83
2021/06/25 04:39:51;;;;;;;18.73;12.38;;;;;;;;;;6252539;23;20429;-83
2021/06/25 04:42:17;;;;;;;20.42;12.82;;;;;;;;;;6228024;23;20132;-83
2021/06/25 04:44:44;;;;;;;22.70;11.60;;;;;;;;;;6259211;23;20016;-83
2021/06/25 04:47:11;;;;;;;19.83;11.93;;;;;;;;;;6254098;23;20103;-83
2021/06/25 04:49:38;;;;;;;19.60;10.27;;;;;;;;;;6223997;23;20024;-83
2021/06/25 04:52:06;;;;;;;17.92;11.25;;;;;;;;;;6223059;23;20032;-82
2021/06/25 04:54:33;;;;;;;16.25;9.85;;;;;;;;;;6223032;23;20047;-82
2021/06/25 04:57:00;;;;;;;18.10;10.93;;;;;;;;;;6223778;23;20059;-82
2021/06/25 04:59:30;;;;;;;16.25;9.57;;;;;;;;;;6222138;23;20596;-82
2021/06/25 05:01:57;;;;;;;14.32;9.65;;;;;;;;;;6245833;23;20467;-83
2021/06/25 05:04:26;;;;;;;16.63;9.63;;;;;;;;;;6245875;23;20028;-82
2021/06/25 05:06:53;;;;;;;14.55;10.70;;;;;;;;;;6221188;23;20031;-84
2021/06/25 05:09:20;;;;;;;16.73;10.00;;;;;;;;;;6222557;23;20082;-81
2021/06/25 05:11:53;;;;;;;15.85;11.18;;;;;;;;;;6248927;23;20036;-82
2021/06/25 05:14:20;;;;;;;19.33;10.88;;;;;;;;;;6243268;23;20068;-82
2021/06/25 05:16:46;;;;;;;19.70;10.30;;;;;;;;;;6223799;23;20039;-82
2021/06/25 05:19:13;;;;;;;16.17;10.07;;;;;;;;;;6248463;23;20024;-83
2021/06/25 05:21:42;;;;;;;17.80;10.68;;;;;;;;;;6222469;23;20028;-82
2021/06/25 05:24:09;;;;;;;15.27;10.75;;;;;;;;;;6249155;23;20024;-83
2021/06/25 05:26:36;;;;;;;15.02;10.63;;;;;;;;;;6246782;23;20020;-82
2021/06/25 05:29:03;;;;;;;17.02;10.38;;;;;;;;;;6220843;23;20035;-83
2021/06/25 05:31:30;;;;;;;19.20;9.80;;;;;;;;;;6246599;23;20020;-82
2021/06/25 05:33:57;;;;;;;20.52;10.32;;;;;;;;;;6248457;23;20099;-82
2021/06/25 05:36:24;;;;;;;14.75;9.35;;;;;;;;;;6252204;23;20028;-82
2021/06/25 05:38:51;;;;;;;13.73;8.93;;;;;;;;;;6220677;23;20243;-82
2021/06/25 05:41:18;;;;;;;18.40;8.65;;;;;;;;;;6245595;23;20028;-82
2021/06/25 05:43:50;;;;;;;15.73;9.05;;;;;;;;;;6245112;23;20382;-83
2021/06/25 05:46:20;;;;;;;11.85;8.18;;;;;;;;;;6220598;23;20028;-85
2021/06/25 05:48:47;;;;;;;14.00;7.45;;;;;;;;;;6223984;23;20322;-84
2021/06/25 05:51:13;;;;;;;13.43;8.02;;;;;;;;;;6220113;23;20409;-83
2021/06/25 05:53:47;;;;;;;10.82;7.38;;;;;;;;;;6222623;23;20008;-84
2021/06/25 05:56:14;;;;;;;12.18;6.53;;;;;;;;;;6223714;23;20024;-83
2021/06/25 05:58:41;;;;;;;13.50;7.15;;;;;;;;;;6245830;23;20111;-82
2021/06/25 06:01:08;;;;;;;8.77;5.65;;;;;;;;;;6246195;23;20032;-83
2021/06/25 06:03:35;;;;;;;10.57;5.90;;;;;;;;;;6245001;23;20034;-83
2021/06/25 06:06:02;;;;;;;17.02;6.60;;;;;;;;;;6217607;23;20028;-83
2021/06/25 06:08:29;;;;;;;14.82;6.30;;;;;;;;;;6217304;23;20012;-83
2021/06/25 06:10:55;;;;;;;10.82;6.03;;;;;;;;;;6216490;23;20095;-83
2021/06/25 06:13:25;;;;;;;10.38;6.03;;;;;;;;;;6218335;23;20024;-83
2021/06/25 06:15:56;;;;;;;10.38;6.38;;;;;;;;;;6221654;23;20028;-83
2021/06/25 06:21:09;;;;;;;13.77;6.95;;;;;;;;;;6251320;23;20024;-83
2021/06/25 06:35:15;;;;;;;10.85;7.13;;;;;;;;;;6251456;23;20113;-84
2021/06/25 06:37:49;;;;;;;12.95;7.25;;;;;;;;;;6254536;23;20043;-85
2021/06/25 06:40:19;;;;;;;12.57;7.05;;;;;;;;;;6245409;23;20177;-83
2021/06/25 06:42:46;;;;;;;9.50;7.18;;;;;;;;;;6219518;23;20020;-83
2021/06/25 06:45:16;;;;;;;15.85;7.78;;;;;;;;;;6245466;23;20110;-84
2021/06/25 06:47:43;;;;;;;10.95;7.95;;;;;;;;;;6221183;23;20060;-83
2021/06/25 06:50:09;;;;;;;16.88;8.18;;;;;;;;;;6224902;23;20394;-84
2021/06/25 06:52:52;;;;;;;18.92;8.65;;;;;;;;;;6238299;23;20012;-83
2021/06/25 06:55:22;;;;;;;11.48;8.38;;;;;;;;;;6262888;22;20076;-83
2021/06/25 06:57:51;;;;;;;17.42;9.15;;;;;;;;;;6249294;23;20204;-82
2021/06/25 07:00:19;;;;;;;10.23;8.75;;;;;;;;;;6216209;23;20028;-82
2021/06/25 07:02:50;;;;;;;16.23;10.30;;;;;;;;;;6221008;23;20029;-82
2021/06/25 07:05:17;;;;;;;15.85;8.90;;;;;;;;;;6217042;23;20024;-82
2021/06/25 07:07:45;;;;;;;11.48;8.35;;;;;;;;;;6217862;23;20410;-84
2021/06/25 07:10:18;;;;;;;11.38;8.60;;;;;;;;;;6217619;23;20074;-82
2021/06/25 07:12:45;;;;;;;13.13;8.70;;;;;;;;;;6212710;23;20108;-84
2021/06/25 07:15:12;;;;;;;9.95;7.15;;;;;;;;;;6219959;23;20051;-84
2021/06/25 07:17:54;;;;;;;14.57;7.47;;;;;;;;;;6225324;23;20028;-83
2021/06/25 07:20:21;;;;;;;9.88;7.10;;;;;;;;;;6215989;23;20346;-82
2021/06/25 07:22:47;;;;;;;11.65;7.00;;;;;;;;;;6212811;23;20032;-83
2021/06/25 07:25:15;;;;;;;11.45;7.13;;;;;;;;;;6212702;23;20421;-83
2021/06/25 07:27:42;;;;;;;9.90;6.38;;;;;;;;;;6215416;23;20043;-82
2021/06/25 07:30:09;;;;;;;12.60;7.20;;;;;;;;;;6212938;23;20346;-82
2021/06/25 07:32:36;;;;;;;12.93;7.22;;;;;;;;;;6213404;23;20131;-83
2021/06/25 07:35:06;;;;;;;9.93;6.68;;;;;;;;;;6214301;23;20025;-83
2021/06/25 07:37:33;;;;;;;10.65;8.30;;;;;;;;;;6212369;23;20051;-83
2021/06/25 07:40:04;;;;;;;12.13;7.72;;;;;;;;;;6215311;23;20099;-82
2021/06/25 07:42:30;;;;;;;11.52;7.88;;;;;;;;;;6213985;23;20036;-82
2021/06/25 07:44:58;;;;;;;10.10;8.70;;;;;;;;;;6218445;23;20035;-82
2021/06/25 07:47:26;;;;;;;10.05;7.97;;;;;;;;;;6218793;23;20311;-83
2021/06/25 07:50:21;;;;;;;8.70;6.70;;;;;;;;;;6218842;23;20071;-82
2021/06/25 07:52:48;;;;;;;10.35;8.50;;;;;;;;;;6217164;23;20206;-82
2021/06/25 07:55:16;;;;;;;10.15;7.50;;;;;;;;;;6217293;23;20025;-82
2021/06/25 07:57:43;;;;;;;11.93;7.20;;;;;;;;;;6218266;23;20035;-83
2021/06/25 08:00:11;;;;;;;11.43;8.23;;;;;;;;;;6234709;23;20012;-82
2021/06/25 08:02:37;;;;;;;10.88;8.68;;;;;;;;;;6217525;23;20051;-83
2021/06/25 08:05:08;;;;;;;10.75;8.48;;;;;;;;;;6217948;23;20084;-83
2021/06/25 08:07:46;;;;;;;11.90;6.95;;;;;;;;;;6250311;22;20035;-86
2021/06/25 08:10:13;;;;;;;9.80;7.00;;;;;;;;;;6222146;23;20390;-84
2021/06/25 08:12:42;;;;;;;11.32;7.18;;;;;;;;;;6222236;23;20012;-85
2021/06/25 08:15:09;;;;;;;10.48;6.65;;;;;;;;;;6222455;23;20022;-85
2021/06/25 08:17:37;;;;;;;10.65;6.88;;;;;;;;;;6258091;22;20016;-83
2021/06/25 08:20:11;;;;;;;9.38;6.10;;;;;;;;;;6251129;23;20085;-84
2021/06/25 08:22:41;;;;;;;7.75;5.85;;;;;;;;;;6247873;23;20024;-84
2021/06/25 08:25:07;;;;;;;8.57;6.78;;;;;;;;;;6245683;23;20020;-85
2021/06/25 08:27:36;;;;;;;10.77;7.05;;;;;;;;;;6246098;23;20326;-85
2021/06/25 08:30:04;;;;;;;11.20;7.20;;;;;;;;;;6225965;23;20024;-84
2021/06/25 08:32:34;;;;;;;11.05;7.25;;;;;;;;;;6251116;23;20415;-84
2021/06/25 08:35:01;;;;;;;13.18;8.13;;;;;;;;;;6245718;23;20176;-83
2021/06/25 08:37:28;;;;;;;15.32;8.20;;;;;;;;;;6244488;23;20352;-83
2021/06/25 08:39:54;;;;;;;11.98;7.88;;;;;;;;;;6218568;23;20182;-84
2021/06/25 08:42:21;;;;;;;14.15;8.55;;;;;;;;;;6221561;23;20055;-83
2021/06/25 08:44:48;;;;;;;8.38;7.07;;;;;;;;;;6219193;23;20115;-84
2021/06/25 08:47:15;;;;;;;12.70;8.57;;;;;;;;;;6220605;23;20071;-83
2021/06/25 08:49:42;;;;;;;14.07;8.52;;;;;;;;;;6246758;23;20160;-85
2021/06/25 08:52:12;;;;;;;12.73;8.55;;;;;;;;;;6248268;23;20071;-82
2021/06/25 08:54:39;;;;;;;11.48;7.93;;;;;;;;;;6251610;23;20020;-83
2021/06/25 08:57:08;;;;;;;10.52;7.70;;;;;;;;;;6222247;23;20039;-83
2021/06/25 08:59:38;;;;;;;11.07;7.53;;;;;;;;;;6223853;23;20046;-83
2021/06/25 09:02:07;;;;;;;10.38;6.80;;;;;;;;;;6251434;23;20111;-83
2021/06/25 09:04:34;;;;;;;13.02;7.15;;;;;;;;;;6223365;23;20047;-85
2021/06/25 09:07:04;;;;;;;11.10;7.20;;;;;;;;;;6252260;23;20012;-84
2021/06/25 09:09:37;;;;;;;10.02;7.38;;;;;;;;;;6227519;23;20249;-84
2021/06/25 09:12:12;;;;;;;9.40;7.53;;;;;;;;;;6254681;23;20088;-83
2021/06/25 09:15:06;;;;;;;10.88;8.55;;;;;;;;;;6227584;23;20034;-84
2021/06/25 09:17:34;;;;;;;14.07;8.43;;;;;;;;;;6221268;23;20039;-83
2021/06/25 09:20:05;;;;;;;12.18;8.63;;;;;;;;;;6245551;23;20036;-82
2021/06/25 09:22:46;;;;;;;12.88;9.35;;;;;;;;;;6243214;23;20068;-83
2021/06/25 09:25:48;;;;;;;9.93;6.97;;;;;;;;;;6220526;23;20548;-85
2021/06/25 09:28:19;;;;;;;9.68;6.68;;;;;;;;;;6247378;23;20039;-82
2021/06/25 09:30:45;;;;;;;9.77;6.57;;;;;;;;;;6218191;23;20020;-83
2021/06/25 09:33:27;;;;;;;11.95;8.10;;;;;;;;;;6252079;22;20031;-86
2021/06/25 09:35:56;;;;;;;15.13;8.43;;;;;;;;;;6220461;23;20417;-84
2021/06/25 09:38:39;;;;;;;10.25;8.10;;;;;;;;;;6219241;23;20058;-85
2021/06/25 09:41:18;;;;;;;10.82;6.90;;;;;;;;;;6247571;23;20016;-84
2021/06/25 09:43:55;;;;;;;10.32;8.07;;;;;;;;;;6219750;23;20031;-85
2021/06/25 09:46:29;;;;;;;9.10;7.10;;;;;;;;;;6242176;23;20065;-83
2021/06/25 09:49:07;;;;;;;11.48;9.32;;;;;;;;;;6217046;23;20430;-82
2021/06/25 09:51:37;;;;;;;10.60;6.90;;;;;;;;;;6243762;23;20024;-83
2021/06/25 09:54:05;;;;;;;8.73;6.80;;;;;;;;;;6217111;23;20357;-84
2021/06/25 09:56:38;;;;;;;9.27;6.40;;;;;;;;;;6243835;23;20371;-84
2021/06/25 10:01:58;;;;;;;10.07;7.28;;;;;;;;;;6244985;23;20024;-84
2021/06/25 10:04:35;;;;;;;8.38;6.47;;;;;;;;;;6220820;23;20020;-84
2021/06/25 10:07:15;;;;;;;11.65;6.97;;;;;;;;;;6251736;23;20289;-84
2021/06/25 10:09:44;;;;;;;8.80;7.13;;;;;;;;;;6229813;22;20083;-85
2021/06/25 10:12:16;;;;;;;9.77;7.80;;;;;;;;;;6232326;23;20023;-84
2021/06/25 10:14:44;;;;;;;10.70;7.18;;;;;;;;;;6219055;23;20024;-84
2021/06/25 10:17:17;;;;;;;9.38;6.15;;;;;;;;;;6222220;23;20075;-83
2021/06/25 10:19:46;;;;;;;9.27;7.32;;;;;;;;;;6245434;23;20012;-83
2021/06/25 10:22:17;;;;;;;10.65;6.90;;;;;;;;;;6225878;23;20075;-83
2021/06/25 10:24:50;;;;;;;7.55;6.28;;;;;;;;;;6254856;23;20177;-83
2021/06/25 10:27:23;;;;;;;7.97;7.07;;;;;;;;;;6218120;23;20047;-86
2021/06/25 10:29:56;;;;;;;12.50;6.97;;;;;;;;;;6220955;22;20043;-84
2021/06/25 10:32:24;;;;;;;12.93;8.32;;;;;;;;;;6246008;23;20050;-84
2021/06/25 10:34:51;;;;;;;11.88;8.75;;;;;;;;;;6240544;23;20082;-84
2021/06/25 10:37:21;;;;;;;10.52;7.95;;;;;;;;;;6246276;23;20087;-83
2021/06/25 10:39:52;;;;;;;10.18;7.50;;;;;;;;;;6216553;23;20083;-84
2021/06/25 10:42:40;;;;;;;9.73;7.45;;;;;;;;;;6213906;23;20025;-83
2021/06/25 10:45:08;;;;;;;9.90;7.20;;;;;;;;;;6237571;23;20098;-82
2021/06/25 10:47:34;;;;;;;9.15;8.05;;;;;;;;;;6240162;23;20028;-85
2021/06/25 10:50:26;;;;;;;11.60;10.05;;;;;;;;;;6240054;23;20028;-84
2021/06/25 10:53:13;;;;;;;10.05;8.52;;;;;;;;;;6217890;23;20099;-83
2021/06/25 10:55:47;;;;;;;14.13;8.43;;;;;;;;;;6243004;23;20024;-85
2021/06/25 10:58:22;;;;;;;8.02;6.60;;;;;;;;;;6219680;23;20166;-84
2021/06/25 11:00:54;;;;;;;11.68;8.77;;;;;;;;;;6216325;23;20208;-84
2021/06/25 11:03:54;;;;;;;10.45;8.25;;;;;;;;;;6218111;23;20021;-83
2021/06/25 11:06:39;;;;;;;6.68;5.65;;;;;;;;;;6123046;23;21613;-83
2021/06/25 11:09:07;;;;;;;9.60;6.72;;;;;;;;;;6210385;23;20039;-84
2021/06/25 11:11:36;;;;;;;9.52;5.97;;;;;;;;;;6212244;23;20059;-83
2021/06/25 11:14:28;;;;;;;6.50;5.50;;;;;;;;;;6208294;23;20075;-83
2021/06/25 11:16:56;;;;;;;8.05;5.05;;;;;;;;;;6219796;23;20021;-83
2021/06/25 11:19:35;;;;;;;10.60;4.70;;;;;;;;;;6212041;23;20385;-84
2021/06/25 11:22:31;;;;;;;8.18;4.88;;;;;;;;;;6202022;23;20025;-83
2021/06/25 11:24:58;;;;;;;7.10;5.20;;;;;;;;;;6207136;23;20025;-84
2021/06/25 11:27:25;;;;;;;7.45;4.80;;;;;;;;;;6215571;22;20188;-84
2021/06/25 11:29:51;;;;;;;7.45;5.43;;;;;;;;;;6209126;23;20016;-84
2021/06/25 11:32:26;;;;;;;7.82;5.68;;;;;;;;;;6205351;23;20111;-83
2021/06/25 11:34:54;;;;;;;9.73;5.45;;;;;;;;;;6209185;23;20032;-83
2021/06/25 11:37:20;;;;;;;7.03;5.60;;;;;;;;;;6203516;23;20068;-83
2021/06/25 11:39:51;;;;;;;4.57;3.67;;;;;;;;;;6215291;23;20024;-84
2021/06/25 11:42:18;;;;;;;7.55;5.45;;;;;;;;;;6216995;23;20138;-84
2021/06/25 11:44:50;;;;;;;5.03;4.50;;;;;;;;;;6211159;23;20043;-83
2021/06/25 11:47:25;;;;;;;7.82;4.30;;;;;;;;;;6208318;23;20036;-84
2021/06/25 11:52:22;;;;;;;9.18;5.25;;;;;;;;;;6208275;23;20220;-84
2021/06/25 11:54:56;;;;;;;6.30;4.15;;;;;;;;;;6209102;23;20562;-85
2021/06/25 11:57:33;;;;;;;7.75;4.03;;;;;;;;;;6209278;23;20383;-85
2021/06/25 12:00:10;;;;;;;7.60;5.70;;;;;;;;;;6220929;23;20090;-83
2021/06/25 12:02:47;;;;;;;7.70;4.90;;;;;;;;;;6237317;23;20024;-83
2021/06/25 12:05:26;;;;;;;6.22;4.22;;;;;;;;;;6211470;23;20031;-83
2021/06/25 12:08:00;;;;;;;4.38;3.72;;;;;;;;;;6239678;23;20024;-84
2021/06/25 12:10:36;;;;;;;5.53;3.25;;;;;;;;;;6215286;23;20032;-84
2021/06/25 12:13:03;;;;;;;5.55;3.63;;;;;;;;;;6227915;22;20032;-84
2021/06/25 12:15:30;;;;;;;6.22;5.00;;;;;;;;;;6243151;23;20058;-83
2021/06/25 12:18:00;;;;;;;7.53;4.38;;;;;;;;;;6248647;23;20020;-84
2021/06/25 12:20:31;;;;;;;4.35;3.92;;;;;;;;;;6239318;23;20269;-84
2021/06/25 12:22:58;;;;;;;6.43;5.57;;;;;;;;;;6215664;23;20112;-84
2021/06/25 12:25:43;;;;;;;7.43;5.72;;;;;;;;;;6216284;23;20067;-83
2021/06/25 12:28:17;;;;;;;7.47;6.13;;;;;;;;;;6246364;23;20440;-83
2021/06/25 12:30:45;;;;;;;5.75;4.72;;;;;;;;;;6249604;23;20159;-82
2021/06/25 12:33:13;;;;;;;7.93;5.55;;;;;;;;;;6217240;23;20105;-82
2021/06/25 12:35:49;;;;;;;6.90;5.18;;;;;;;;;;6216019;23;20110;-85
2021/06/25 12:38:18;;;;;;;6.47;4.68;;;;;;;;;;6218228;23;20296;-84
2021/06/25 12:40:48;;;;;;;7.82;5.03;;;;;;;;;;6246410;23;20028;-86
2021/06/25 12:43:18;;;;;;;6.15;4.18;;;;;;;;;;6218663;23;20139;-83
2021/06/25 12:45:49;;;;;;;5.35;3.90;;;;;;;;;;6246928;23;20063;-84
2021/06/25 12:48:36;;;;;;;9.93;4.82;;;;;;;;;;6223936;23;20280;-83
2021/06/25 12:51:04;;;;;;;5.40;4.22;;;;;;;;;;6217896;23;20394;-83
2021/06/25 12:53:35;;;;;;;8.73;4.65;;;;;;;;;;6245602;23;20024;-83
2021/06/25 12:56:16;;;;;;;7.88;5.45;;;;;;;;;;6220003;23;20034;-84
2021/06/25 12:58:59;;;;;;;9.18;5.22;;;;;;;;;;6224567;23;20028;-82
2021/06/25 13:01:34;;;;;;;11.18;5.30;;;;;;;;;;6211629;23;20024;-83
2021/06/25 13:04:01;;;;;;;8.30;6.82;;;;;;;;;;6185807;23;20028;-83
2021/06/25 13:06:37;;;;;;;6.30;4.90;;;;;;;;;;6185692;23;20035;-83
2021/06/25 13:09:05;;;;;;;5.03;4.53;;;;;;;;;;6188242;23;20407;-83
2021/06/25 13:11:33;;;;;;;7.28;3.60;;;;;;;;;;6217555;23;20111;-83
2021/06/25 13:14:00;;;;;;;7.18;5.15;;;;;;;;;;6218211;23;20084;-84
2021/06/25 13:16:27;;;;;;;7.35;5.53;;;;;;;;;;6211228;23;20263;-84
2021/06/25 13:18:54;;;;;;;7.35;3.97;;;;;;;;;;6193329;23;20303;-83
2021/06/25 13:21:24;;;;;;;7.35;4.25;;;;;;;;;;6217277;23;20133;-84
2021/06/25 13:24:19;;;;;;;6.93;4.70;;;;;;;;;;6192555;23;20286;-83
2021/06/25 13:26:45;;;;;;;7.63;4.57;;;;;;;;;;6196112;23;20377;-83
2021/06/25 13:29:12;;;;;;;10.02;5.00;;;;;;;;;;6201093;23;20028;-83
2021/06/25 13:31:50;;;;;;;8.63;4.88;;;;;;;;;;6232903;22;20020;-84
2021/06/25 13:34:17;;;;;;;8.00;4.43;;;;;;;;;;6201256;23;20172;-85
2021/06/25 13:36:56;;;;;;;7.53;5.82;;;;;;;;;;6195203;23;20221;-84
2021/06/25 13:39:24;;;;;;;9.18;3.80;;;;;;;;;;6216141;23;20036;-84
2021/06/25 13:41:54;;;;;;;9.65;5.50;;;;;;;;;;6196389;23;20035;-83
2021/06/25 13:44:31;;;;;;;6.20;4.72;;;;;;;;;;6217280;23;20091;-83
2021/06/25 13:47:03;;;;;;;7.30;4.60;;;;;;;;;;6192428;23;20035;-83
2021/06/25 13:49:31;;;;;;;8.05;3.55;;;;;;;;;;6216673;23;20052;-83
2021/06/25 13:51:58;;;;;;;5.07;3.42;;;;;;;;;;6185404;23;20453;-84
2021/06/25 13:54:24;;;;;;;5.95;4.55;;;;;;;;;;6211279;23;20083;-84
2021/06/25 13:56:55;;;;;;;7.03;3.78;;;;;;;;;;6184932;23;20036;-84
2021/06/25 13:59:40;;;;;;;4.57;4.13;;;;;;;;;;6192675;23;20028;-85
2021/06/25 14:02:10;;;;;;;4.00;3.00;;;;;;;;;;6213385;23;20054;-84
2021/06/25 14:04:37;;;;;;;5.97;3.50;;;;;;;;;;6214398;23;20024;-85
2021/06/25 14:07:21;;;;;;;11.48;3.90;;;;;;;;;;6216073;23;20086;-84
2021/06/25 14:09:49;;;;;;;4.32;2.15;;;;;;;;;;6215711;23;20119;-85
2021/06/25 14:12:16;;;;;;;5.85;3.38;;;;;;;;;;6215834;23;20024;-85
2021/06/25 14:14:44;;;;;;;5.15;3.38;;;;;;;;;;6212987;23;20217;-86
2021/06/25 14:17:11;;;;;;;4.50;3.65;;;;;;;;;;6213223;23;20090;-83
2021/06/25 14:19:43;;;;;;;4.57;2.97;;;;;;;;;;6238428;23;20071;-84
2021/06/25 14:22:10;;;;;;;6.47;2.75;;;;;;;;;;6213474;23;20158;-84
2021/06/25 14:24:36;;;;;;;5.07;3.20;;;;;;;;;;6238005;23;20028;-85
2021/06/25 14:27:06;;;;;;;3.67;3.00;;;;;;;;;;6236539;23;20050;-85
2021/06/25 14:29:33;;;;;;;4.32;2.58;;;;;;;;;;6210661;23;20028;-84
2021/06/25 14:32:05;;;;;;;4.82;4.32;;;;;;;;;;6213919;23;20505;-84
2021/06/25 14:34:32;;;;;;;3.35;3.05;;;;;;;;;;6236860;23;20024;-82
2021/06/25 14:36:59;;;;;;;5.97;3.15;;;;;;;;;;6236103;23;20028;-83
2021/06/25 14:39:25;;;;;;;5.80;2.72;;;;;;;;;;6211823;23;20075;-84
2021/06/25 14:41:53;;;;;;;6.20;3.55;;;;;;;;;;6212658;23;20079;-84
2021/06/25 14:44:20;;;;;;;6.18;3.28;;;;;;;;;;6210322;23;20062;-84
2021/06/25 14:46:47;;;;;;;4.20;3.13;;;;;;;;;;6216049;23;20036;-85
2021/06/25 14:49:13;;;;;;;3.42;2.85;;;;;;;;;;6214538;23;20265;-82
2021/06/25 14:51:40;;;;;;;4.72;2.78;;;;;;;;;;6239446;23;20028;-85
2021/06/25 14:54:21;;;;;;;11.57;4.43;;;;;;;;;;6229676;22;20151;-85
2021/06/25 14:56:50;;;;;;;5.15;3.60;;;;;;;;;;6217338;23;20036;-84
2021/06/25 14:59:16;;;;;;;3.55;2.95;;;;;;;;;;6215958;23;20036;-83
2021/06/25 15:01:43;;;;;;;5.57;2.25;;;;;;;;;;6217678;23;20330;-85
2021/06/25 15:04:10;;;;;;;4.47;2.80;;;;;;;;;;6250407;23;20265;-84
2021/06/25 15:06:40;;;;;;;3.60;2.38;;;;;;;;;;6224356;23;20231;-84
2021/06/25 15:09:07;;;;;;;3.25;2.65;;;;;;;;;;6244039;23;20028;-84